sensor_id;sensor_type;location;lat;lon;timestamp;P1;durP1;ratioP1;P2;durP2;ratioP2
28910;SDS011;16028;42.642;23.310;2022-08-21T00:01:10;16.83;;;7.90;;
28910;SDS011;16028;42.642;23.310;2022-08-21T00:03:40;16.23;;;8.80;;
28910;SDS011;16028;42.642;23.310;2022-08-21T00:06:08;16.10;;;8.52;;
28910;SDS011;16028;42.642;23.310;2022-08-21T00:08:35;14.73;;;7.82;;
28910;SDS011;16028;42.642;23.310;2022-08-21T00:11:05;15.32;;;7.07;;
28910;SDS011;16028;42.642;23.310;2022-08-21T00:13:34;15.55;;;7.45;;
28910;SDS011;16028;42.642;23.310;2022-08-21T00:16:02;15.75;;;7.85;;
28910;SDS011;16028;42.642;23.310;2022-08-21T00:18:30;14.13;;;8.25;;
28910;SDS011;16028;42.642;23.310;2022-08-21T00:20:57;14.93;;;9.25;;
28910;SDS011;16028;42.642;23.310;2022-08-21T00:23:24;14.43;;;8.60;;
28910;SDS011;16028;42.642;23.310;2022-08-21T00:25:51;18.02;;;9.02;;
28910;SDS011;16028;42.642;23.310;2022-08-21T00:28:18;20.45;;;10.40;;
28910;SDS011;16028;42.642;23.310;2022-08-21T00:30:46;15.30;;;9.73;;
28910;SDS011;16028;42.642;23.310;2022-08-21T00:33:13;28.30;;;13.30;;
28910;SDS011;16028;42.642;23.310;2022-08-21T00:35:41;26.23;;;13.45;;
28910;SDS011;16028;42.642;23.310;2022-08-21T00:38:09;21.27;;;11.68;;
28910;SDS011;16028;42.642;23.310;2022-08-21T00:40:37;32.00;;;15.80;;
28910;SDS011;16028;42.642;23.310;2022-08-21T00:43:06;36.20;;;16.67;;
28910;SDS011;16028;42.642;23.310;2022-08-21T00:45:35;30.52;;;15.88;;
28910;SDS011;16028;42.642;23.310;2022-08-21T00:48:04;25.85;;;14.10;;
28910;SDS011;16028;42.642;23.310;2022-08-21T00:50:33;29.20;;;13.75;;
28910;SDS011;16028;42.642;23.310;2022-08-21T00:53:02;23.70;;;12.65;;
28910;SDS011;16028;42.642;23.310;2022-08-21T00:55:32;19.98;;;11.00;;
28910;SDS011;16028;42.642;23.310;2022-08-21T00:58:02;19.13;;;9.70;;
28910;SDS011;16028;42.642;23.310;2022-08-21T01:00:36;18.42;;;11.77;;
28910;SDS011;16028;42.642;23.310;2022-08-21T01:03:08;22.95;;;10.80;;
28910;SDS011;16028;42.642;23.310;2022-08-21T01:05:37;15.70;;;9.73;;
28910;SDS011;16028;42.642;23.310;2022-08-21T01:08:08;19.38;;;9.77;;
28910;SDS011;16028;42.642;23.310;2022-08-21T01:10:36;15.93;;;9.00;;
28910;SDS011;16028;42.642;23.310;2022-08-21T01:13:04;11.90;;;8.60;;
28910;SDS011;16028;42.642;23.310;2022-08-21T01:15:35;14.35;;;8.52;;
28910;SDS011;16028;42.642;23.310;2022-08-21T01:18:07;16.38;;;8.43;;
28910;SDS011;16028;42.642;23.310;2022-08-21T01:20:36;12.07;;;6.75;;
28910;SDS011;16028;42.642;23.310;2022-08-21T01:23:08;16.20;;;7.03;;
28910;SDS011;16028;42.642;23.310;2022-08-21T01:25:35;12.48;;;6.43;;
28910;SDS011;16028;42.642;23.310;2022-08-21T01:28:04;9.07;;;6.22;;
28910;SDS011;16028;42.642;23.310;2022-08-21T01:30:35;9.55;;;6.35;;
28910;SDS011;16028;42.642;23.310;2022-08-21T01:33:04;8.18;;;5.55;;
28910;SDS011;16028;42.642;23.310;2022-08-21T01:35:31;8.23;;;5.30;;
28910;SDS011;16028;42.642;23.310;2022-08-21T01:37:58;9.18;;;5.18;;
28910;SDS011;16028;42.642;23.310;2022-08-21T01:40:26;9.32;;;5.00;;
28910;SDS011;16028;42.642;23.310;2022-08-21T01:42:53;10.55;;;5.35;;
28910;SDS011;16028;42.642;23.310;2022-08-21T01:45:20;8.98;;;4.93;;
28910;SDS011;16028;42.642;23.310;2022-08-21T01:47:48;9.80;;;4.38;;
28910;SDS011;16028;42.642;23.310;2022-08-21T01:50:16;7.60;;;4.43;;
28910;SDS011;16028;42.642;23.310;2022-08-21T01:52:45;14.70;;;4.50;;
28910;SDS011;16028;42.642;23.310;2022-08-21T01:55:13;8.85;;;4.38;;
28910;SDS011;16028;42.642;23.310;2022-08-21T01:57:42;10.10;;;4.28;;
28910;SDS011;16028;42.642;23.310;2022-08-21T02:00:11;6.07;;;4.07;;
28910;SDS011;16028;42.642;23.310;2022-08-21T02:02:41;5.65;;;3.58;;
28910;SDS011;16028;42.642;23.310;2022-08-21T02:05:09;6.70;;;4.40;;
28910;SDS011;16028;42.642;23.310;2022-08-21T02:07:40;8.13;;;4.55;;
28910;SDS011;16028;42.642;23.310;2022-08-21T02:10:10;13.57;;;5.03;;
28910;SDS011;16028;42.642;23.310;2022-08-21T02:12:39;9.52;;;4.88;;
28910;SDS011;16028;42.642;23.310;2022-08-21T02:15:08;8.63;;;4.20;;
28910;SDS011;16028;42.642;23.310;2022-08-21T02:17:39;8.10;;;4.70;;
28910;SDS011;16028;42.642;23.310;2022-08-21T02:20:08;14.43;;;4.45;;
28910;SDS011;16028;42.642;23.310;2022-08-21T02:22:39;9.55;;;4.50;;
28910;SDS011;16028;42.642;23.310;2022-08-21T02:25:06;12.70;;;4.78;;
28910;SDS011;16028;42.642;23.310;2022-08-21T02:27:37;8.15;;;4.60;;
28910;SDS011;16028;42.642;23.310;2022-08-21T02:30:05;9.02;;;5.00;;
28910;SDS011;16028;42.642;23.310;2022-08-21T02:32:35;11.18;;;4.15;;
28910;SDS011;16028;42.642;23.310;2022-08-21T02:35:02;13.10;;;5.07;;
28910;SDS011;16028;42.642;23.310;2022-08-21T02:37:29;6.70;;;4.75;;
28910;SDS011;16028;42.642;23.310;2022-08-21T02:39:56;7.07;;;4.55;;
28910;SDS011;16028;42.642;23.310;2022-08-21T02:42:23;9.32;;;5.00;;
28910;SDS011;16028;42.642;23.310;2022-08-21T02:44:50;13.23;;;4.95;;
28910;SDS011;16028;42.642;23.310;2022-08-21T02:47:18;9.30;;;4.95;;
28910;SDS011;16028;42.642;23.310;2022-08-21T02:49:45;8.38;;;4.43;;
28910;SDS011;16028;42.642;23.310;2022-08-21T02:52:11;6.95;;;4.32;;
28910;SDS011;16028;42.642;23.310;2022-08-21T02:54:38;6.60;;;3.72;;
28910;SDS011;16028;42.642;23.310;2022-08-21T02:57:05;13.40;;;4.88;;
28910;SDS011;16028;42.642;23.310;2022-08-21T02:59:33;11.05;;;4.40;;
28910;SDS011;16028;42.642;23.310;2022-08-21T03:01:59;7.38;;;3.60;;
28910;SDS011;16028;42.642;23.310;2022-08-21T03:04:28;8.70;;;3.35;;
28910;SDS011;16028;42.642;23.310;2022-08-21T03:06:54;9.30;;;3.55;;
28910;SDS011;16028;42.642;23.310;2022-08-21T03:09:21;9.30;;;3.40;;
28910;SDS011;16028;42.642;23.310;2022-08-21T03:11:49;7.82;;;3.60;;
28910;SDS011;16028;42.642;23.310;2022-08-21T03:14:16;7.40;;;3.45;;
28910;SDS011;16028;42.642;23.310;2022-08-21T03:16:43;14.27;;;4.05;;
28910;SDS011;16028;42.642;23.310;2022-08-21T03:19:10;10.93;;;4.50;;
28910;SDS011;16028;42.642;23.310;2022-08-21T03:21:38;8.45;;;4.05;;
28910;SDS011;16028;42.642;23.310;2022-08-21T03:24:05;8.88;;;4.30;;
28910;SDS011;16028;42.642;23.310;2022-08-21T03:26:34;8.57;;;4.13;;
28910;SDS011;16028;42.642;23.310;2022-08-21T03:29:01;9.95;;;4.28;;
28910;SDS011;16028;42.642;23.310;2022-08-21T03:31:28;9.90;;;3.92;;
28910;SDS011;16028;42.642;23.310;2022-08-21T03:33:56;11.93;;;3.80;;
28910;SDS011;16028;42.642;23.310;2022-08-21T03:36:23;8.77;;;3.72;;
28910;SDS011;16028;42.642;23.310;2022-08-21T03:38:52;8.07;;;3.92;;
28910;SDS011;16028;42.642;23.310;2022-08-21T03:41:19;9.20;;;4.10;;
28910;SDS011;16028;42.642;23.310;2022-08-21T03:43:45;12.52;;;4.13;;
28910;SDS011;16028;42.642;23.310;2022-08-21T03:46:13;9.05;;;4.25;;
28910;SDS011;16028;42.642;23.310;2022-08-21T03:48:39;9.43;;;3.72;;
28910;SDS011;16028;42.642;23.310;2022-08-21T03:51:06;6.68;;;3.67;;
28910;SDS011;16028;42.642;23.310;2022-08-21T03:53:34;9.25;;;4.32;;
28910;SDS011;16028;42.642;23.310;2022-08-21T03:56:03;9.27;;;3.70;;
28910;SDS011;16028;42.642;23.310;2022-08-21T03:58:31;10.65;;;3.53;;
28910;SDS011;16028;42.642;23.310;2022-08-21T04:00:58;8.38;;;4.57;;
28910;SDS011;16028;42.642;23.310;2022-08-21T04:03:26;10.30;;;4.47;;
28910;SDS011;16028;42.642;23.310;2022-08-21T04:05:54;10.25;;;4.30;;
28910;SDS011;16028;42.642;23.310;2022-08-21T04:08:20;6.07;;;3.35;;
28910;SDS011;16028;42.642;23.310;2022-08-21T04:10:48;7.18;;;4.07;;
28910;SDS011;16028;42.642;23.310;2022-08-21T04:13:19;7.60;;;4.03;;
28910;SDS011;16028;42.642;23.310;2022-08-21T04:15:47;10.57;;;4.65;;
28910;SDS011;16028;42.642;23.310;2022-08-21T04:18:14;10.45;;;5.15;;
28910;SDS011;16028;42.642;23.310;2022-08-21T04:20:41;8.95;;;4.40;;
28910;SDS011;16028;42.642;23.310;2022-08-21T04:23:11;10.05;;;3.88;;
28910;SDS011;16028;42.642;23.310;2022-08-21T04:25:38;8.40;;;3.72;;
28910;SDS011;16028;42.642;23.310;2022-08-21T04:28:04;8.63;;;4.35;;
28910;SDS011;16028;42.642;23.310;2022-08-21T04:30:33;14.77;;;4.30;;
28910;SDS011;16028;42.642;23.310;2022-08-21T04:33:00;12.50;;;3.92;;
28910;SDS011;16028;42.642;23.310;2022-08-21T04:35:28;8.02;;;4.10;;
28910;SDS011;16028;42.642;23.310;2022-08-21T04:37:55;9.13;;;4.13;;
28910;SDS011;16028;42.642;23.310;2022-08-21T04:40:23;8.05;;;3.85;;
28910;SDS011;16028;42.642;23.310;2022-08-21T04:42:52;11.20;;;4.78;;
28910;SDS011;16028;42.642;23.310;2022-08-21T04:45:21;5.30;;;4.07;;
28910;SDS011;16028;42.642;23.310;2022-08-21T04:47:53;8.27;;;4.45;;
28910;SDS011;16028;42.642;23.310;2022-08-21T04:50:22;8.73;;;4.45;;
28910;SDS011;16028;42.642;23.310;2022-08-21T04:52:55;8.57;;;4.93;;
28910;SDS011;16028;42.642;23.310;2022-08-21T04:55:22;10.13;;;5.43;;
28910;SDS011;16028;42.642;23.310;2022-08-21T04:57:55;12.25;;;5.30;;
28910;SDS011;16028;42.642;23.310;2022-08-21T05:00:22;11.27;;;5.57;;
28910;SDS011;16028;42.642;23.310;2022-08-21T05:02:52;11.32;;;7.45;;
28910;SDS011;16028;42.642;23.310;2022-08-21T05:05:21;9.63;;;6.68;;
28910;SDS011;16028;42.642;23.310;2022-08-21T05:07:48;19.20;;;6.80;;
28910;SDS011;16028;42.642;23.310;2022-08-21T05:10:15;12.45;;;7.03;;
28910;SDS011;16028;42.642;23.310;2022-08-21T05:12:42;13.48;;;6.47;;
28910;SDS011;16028;42.642;23.310;2022-08-21T05:15:10;12.57;;;6.72;;
28910;SDS011;16028;42.642;23.310;2022-08-21T05:17:38;13.23;;;7.50;;
28910;SDS011;16028;42.642;23.310;2022-08-21T05:20:19;8.05;;;5.85;;
28910;SDS011;16028;42.642;23.310;2022-08-21T05:22:46;14.05;;;6.40;;
28910;SDS011;16028;42.642;23.310;2022-08-21T05:25:12;9.35;;;6.00;;
28910;SDS011;16028;42.642;23.310;2022-08-21T05:27:39;8.50;;;5.88;;
28910;SDS011;16028;42.642;23.310;2022-08-21T05:30:08;12.32;;;6.40;;
28910;SDS011;16028;42.642;23.310;2022-08-21T05:32:36;11.55;;;6.90;;
28910;SDS011;16028;42.642;23.310;2022-08-21T05:35:03;13.93;;;8.15;;
28910;SDS011;16028;42.642;23.310;2022-08-21T05:37:33;12.57;;;7.70;;
28910;SDS011;16028;42.642;23.310;2022-08-21T05:40:05;13.10;;;7.47;;
28910;SDS011;16028;42.642;23.310;2022-08-21T05:42:33;11.85;;;6.93;;
28910;SDS011;16028;42.642;23.310;2022-08-21T05:45:00;14.55;;;7.68;;
28910;SDS011;16028;42.642;23.310;2022-08-21T05:47:29;11.80;;;7.40;;
28910;SDS011;16028;42.642;23.310;2022-08-21T05:49:56;12.85;;;7.43;;
28910;SDS011;16028;42.642;23.310;2022-08-21T05:52:23;13.60;;;7.70;;
28910;SDS011;16028;42.642;23.310;2022-08-21T05:54:51;14.88;;;7.43;;
28910;SDS011;16028;42.642;23.310;2022-08-21T05:57:19;13.35;;;7.05;;
28910;SDS011;16028;42.642;23.310;2022-08-21T05:59:46;10.65;;;5.95;;
28910;SDS011;16028;42.642;23.310;2022-08-21T06:02:13;11.73;;;6.80;;
28910;SDS011;16028;42.642;23.310;2022-08-21T06:04:40;10.73;;;6.18;;
28910;SDS011;16028;42.642;23.310;2022-08-21T06:07:07;12.68;;;6.25;;
28910;SDS011;16028;42.642;23.310;2022-08-21T06:09:34;11.15;;;6.70;;
28910;SDS011;16028;42.642;23.310;2022-08-21T06:12:05;14.20;;;6.18;;
28910;SDS011;16028;42.642;23.310;2022-08-21T06:14:32;11.73;;;6.55;;
28910;SDS011;16028;42.642;23.310;2022-08-21T06:17:01;14.80;;;6.95;;
28910;SDS011;16028;42.642;23.310;2022-08-21T06:19:29;10.80;;;7.03;;
28910;SDS011;16028;42.642;23.310;2022-08-21T06:21:56;14.38;;;7.07;;
28910;SDS011;16028;42.642;23.310;2022-08-21T06:24:22;12.25;;;6.95;;
28910;SDS011;16028;42.642;23.310;2022-08-21T06:26:50;13.32;;;7.43;;
28910;SDS011;16028;42.642;23.310;2022-08-21T06:29:18;14.55;;;7.90;;
28910;SDS011;16028;42.642;23.310;2022-08-21T06:31:45;17.27;;;7.20;;
28910;SDS011;16028;42.642;23.310;2022-08-21T06:34:12;16.23;;;7.30;;
28910;SDS011;16028;42.642;23.310;2022-08-21T06:36:39;15.43;;;7.97;;
28910;SDS011;16028;42.642;23.310;2022-08-21T06:39:06;13.00;;;6.57;;
28910;SDS011;16028;42.642;23.310;2022-08-21T06:41:33;11.85;;;6.32;;
28910;SDS011;16028;42.642;23.310;2022-08-21T06:43:59;12.48;;;6.93;;
28910;SDS011;16028;42.642;23.310;2022-08-21T06:46:28;13.93;;;7.68;;
28910;SDS011;16028;42.642;23.310;2022-08-21T06:48:56;19.02;;;7.63;;
28910;SDS011;16028;42.642;23.310;2022-08-21T06:51:24;11.82;;;7.38;;
28910;SDS011;16028;42.642;23.310;2022-08-21T06:53:51;11.90;;;8.00;;
28910;SDS011;16028;42.642;23.310;2022-08-21T06:56:19;11.68;;;6.13;;
28910;SDS011;16028;42.642;23.310;2022-08-21T06:58:46;11.23;;;6.95;;
28910;SDS011;16028;42.642;23.310;2022-08-21T07:01:13;12.90;;;6.40;;
28910;SDS011;16028;42.642;23.310;2022-08-21T07:03:44;12.05;;;6.40;;
28910;SDS011;16028;42.642;23.310;2022-08-21T07:06:13;13.75;;;6.50;;
28910;SDS011;16028;42.642;23.310;2022-08-21T07:08:44;9.90;;;5.90;;
28910;SDS011;16028;42.642;23.310;2022-08-21T07:11:14;6.93;;;5.60;;
28910;SDS011;16028;42.642;23.310;2022-08-21T07:13:47;14.07;;;6.28;;
28910;SDS011;16028;42.642;23.310;2022-08-21T07:16:26;9.32;;;5.30;;
28910;SDS011;16028;42.642;23.310;2022-08-21T07:19:04;11.57;;;5.70;;
28910;SDS011;16028;42.642;23.310;2022-08-21T07:21:31;8.80;;;5.53;;
28910;SDS011;16028;42.642;23.310;2022-08-21T07:24:08;8.50;;;5.22;;
28910;SDS011;16028;42.642;23.310;2022-08-21T07:26:44;13.48;;;6.32;;
28910;SDS011;16028;42.642;23.310;2022-08-21T07:29:17;9.52;;;6.63;;
28910;SDS011;16028;42.642;23.310;2022-08-21T07:31:48;9.85;;;6.15;;
28910;SDS011;16028;42.642;23.310;2022-08-21T07:34:23;12.77;;;6.03;;
28910;SDS011;16028;42.642;23.310;2022-08-21T07:36:54;12.18;;;6.25;;
28910;SDS011;16028;42.642;23.310;2022-08-21T07:39:33;12.63;;;6.38;;
28910;SDS011;16028;42.642;23.310;2022-08-21T07:58:19;10.68;;;6.00;;
28910;SDS011;16028;42.642;23.310;2022-08-21T08:00:46;8.73;;;5.05;;
28910;SDS011;16028;42.642;23.310;2022-08-21T08:03:14;11.05;;;5.75;;
28910;SDS011;16028;42.642;23.310;2022-08-21T08:05:46;11.85;;;6.32;;
28910;SDS011;16028;42.642;23.310;2022-08-21T08:08:17;15.20;;;6.70;;
28910;SDS011;16028;42.642;23.310;2022-08-21T08:10:44;13.23;;;6.43;;
28910;SDS011;16028;42.642;23.310;2022-08-21T08:13:14;14.80;;;6.70;;
28910;SDS011;16028;42.642;23.310;2022-08-21T08:15:44;8.05;;;5.90;;
28910;SDS011;16028;42.642;23.310;2022-08-21T08:18:11;13.25;;;7.25;;
28910;SDS011;16028;42.642;23.310;2022-08-21T08:20:41;16.02;;;7.85;;
28910;SDS011;16028;42.642;23.310;2022-08-21T08:23:09;14.23;;;7.72;;
28910;SDS011;16028;42.642;23.310;2022-08-21T08:25:41;14.13;;;7.30;;
28910;SDS011;16028;42.642;23.310;2022-08-21T08:28:11;11.75;;;5.90;;
28910;SDS011;16028;42.642;23.310;2022-08-21T08:30:38;15.13;;;7.60;;
28910;SDS011;16028;42.642;23.310;2022-08-21T08:33:06;15.05;;;7.47;;
28910;SDS011;16028;42.642;23.310;2022-08-21T08:35:32;15.35;;;7.88;;
28910;SDS011;16028;42.642;23.310;2022-08-21T08:37:59;18.67;;;7.00;;
28910;SDS011;16028;42.642;23.310;2022-08-21T08:40:29;15.70;;;9.27;;
28910;SDS011;16028;42.642;23.310;2022-08-21T08:43:06;14.48;;;8.02;;
28910;SDS011;16028;42.642;23.310;2022-08-21T08:45:34;11.70;;;7.03;;
28910;SDS011;16028;42.642;23.310;2022-08-21T08:48:07;12.82;;;7.65;;
28910;SDS011;16028;42.642;23.310;2022-08-21T08:50:40;15.70;;;7.95;;
28910;SDS011;16028;42.642;23.310;2022-08-21T08:53:11;20.13;;;7.43;;
28910;SDS011;16028;42.642;23.310;2022-08-21T08:55:41;13.02;;;6.75;;
28910;SDS011;16028;42.642;23.310;2022-08-21T08:58:12;11.65;;;6.20;;
28910;SDS011;16028;42.642;23.310;2022-08-21T09:00:45;10.60;;;7.20;;
28910;SDS011;16028;42.642;23.310;2022-08-21T09:03:15;10.55;;;6.22;;
28910;SDS011;16028;42.642;23.310;2022-08-21T09:05:44;15.13;;;6.80;;
28910;SDS011;16028;42.642;23.310;2022-08-21T09:08:26;10.65;;;6.85;;
28910;SDS011;16028;42.642;23.310;2022-08-21T09:11:03;12.93;;;6.63;;
28910;SDS011;16028;42.642;23.310;2022-08-21T09:13:38;14.05;;;8.15;;
28910;SDS011;16028;42.642;23.310;2022-08-21T09:16:19;12.32;;;6.07;;
28910;SDS011;16028;42.642;23.310;2022-08-21T09:19:01;8.80;;;5.50;;
28910;SDS011;16028;42.642;23.310;2022-08-21T09:21:38;12.77;;;5.78;;
28910;SDS011;16028;42.642;23.310;2022-08-21T09:24:21;13.00;;;6.00;;
28910;SDS011;16028;42.642;23.310;2022-08-21T09:26:57;10.95;;;5.57;;
28910;SDS011;16028;42.642;23.310;2022-08-21T09:29:33;9.48;;;5.65;;
28910;SDS011;16028;42.642;23.310;2022-08-21T09:32:04;11.02;;;5.82;;
28910;SDS011;16028;42.642;23.310;2022-08-21T09:34:39;10.27;;;5.65;;
28910;SDS011;16028;42.642;23.310;2022-08-21T09:37:15;11.70;;;6.20;;
28910;SDS011;16028;42.642;23.310;2022-08-21T09:39:43;13.68;;;6.35;;
28910;SDS011;16028;42.642;23.310;2022-08-21T09:42:10;13.55;;;6.13;;
28910;SDS011;16028;42.642;23.310;2022-08-21T09:44:39;8.98;;;5.53;;
28910;SDS011;16028;42.642;23.310;2022-08-21T09:47:09;10.77;;;5.80;;
28910;SDS011;16028;42.642;23.310;2022-08-21T09:49:41;9.02;;;5.60;;
28910;SDS011;16028;42.642;23.310;2022-08-21T09:52:14;11.90;;;5.60;;
28910;SDS011;16028;42.642;23.310;2022-08-21T09:54:49;9.52;;;6.30;;
28910;SDS011;16028;42.642;23.310;2022-08-21T09:57:19;22.67;;;6.80;;
28910;SDS011;16028;42.642;23.310;2022-08-21T10:00:11;10.60;;;5.88;;
28910;SDS011;16028;42.642;23.310;2022-08-21T10:02:46;11.48;;;6.20;;
28910;SDS011;16028;42.642;23.310;2022-08-21T10:05:16;11.48;;;7.10;;
28910;SDS011;16028;42.642;23.310;2022-08-21T10:07:44;13.18;;;6.45;;
28910;SDS011;16028;42.642;23.310;2022-08-21T10:10:16;13.27;;;6.32;;
28910;SDS011;16028;42.642;23.310;2022-08-21T10:12:46;10.50;;;6.47;;
28910;SDS011;16028;42.642;23.310;2022-08-21T10:15:27;9.90;;;6.30;;
28910;SDS011;16028;42.642;23.310;2022-08-21T10:18:02;14.77;;;6.93;;
28910;SDS011;16028;42.642;23.310;2022-08-21T10:20:39;17.95;;;8.13;;
28910;SDS011;16028;42.642;23.310;2022-08-21T10:25:48;10.85;;;6.57;;
28910;SDS011;16028;42.642;23.310;2022-08-21T10:28:26;16.60;;;7.43;;
28910;SDS011;16028;42.642;23.310;2022-08-21T10:31:07;13.60;;;6.10;;
28910;SDS011;16028;42.642;23.310;2022-08-21T10:33:44;11.85;;;6.25;;
28910;SDS011;16028;42.642;23.310;2022-08-21T10:36:20;9.73;;;6.13;;
28910;SDS011;16028;42.642;23.310;2022-08-21T10:38:58;19.55;;;6.38;;
28910;SDS011;16028;42.642;23.310;2022-08-21T10:41:37;11.10;;;5.97;;
28910;SDS011;16028;42.642;23.310;2022-08-21T10:44:17;11.50;;;5.18;;
28910;SDS011;16028;42.642;23.310;2022-08-21T10:47:00;13.77;;;6.55;;
28910;SDS011;16028;42.642;23.310;2022-08-21T10:49:32;9.85;;;5.50;;
28910;SDS011;16028;42.642;23.310;2022-08-21T10:55:06;12.15;;;5.95;;
28910;SDS011;16028;42.642;23.310;2022-08-21T10:57:39;15.07;;;7.50;;
28910;SDS011;16028;42.642;23.310;2022-08-21T11:00:16;9.27;;;5.60;;
28910;SDS011;16028;42.642;23.310;2022-08-21T11:02:47;6.63;;;4.75;;
28910;SDS011;16028;42.642;23.310;2022-08-21T11:05:27;11.88;;;6.13;;
28910;SDS011;16028;42.642;23.310;2022-08-21T11:08:01;7.97;;;5.57;;
28910;SDS011;16028;42.642;23.310;2022-08-21T11:10:31;11.65;;;5.60;;
28910;SDS011;16028;42.642;23.310;2022-08-21T11:13:04;12.23;;;5.00;;
28910;SDS011;16028;42.642;23.310;2022-08-21T11:15:37;12.07;;;5.63;;
28910;SDS011;16028;42.642;23.310;2022-08-21T11:18:17;9.90;;;5.30;;
28910;SDS011;16028;42.642;23.310;2022-08-21T11:20:52;19.42;;;13.55;;
28910;SDS011;16028;42.642;23.310;2022-08-21T11:23:31;11.02;;;6.03;;
28910;SDS011;16028;42.642;23.310;2022-08-21T11:26:08;8.02;;;5.57;;
28910;SDS011;16028;42.642;23.310;2022-08-21T11:28:45;11.57;;;5.25;;
28910;SDS011;16028;42.642;23.310;2022-08-21T11:31:24;11.25;;;4.95;;
28910;SDS011;16028;42.642;23.310;2022-08-21T11:34:12;12.32;;;5.50;;
28910;SDS011;16028;42.642;23.310;2022-08-21T11:36:51;8.98;;;5.30;;
28910;SDS011;16028;42.642;23.310;2022-08-21T11:39:36;6.30;;;4.57;;
28910;SDS011;16028;42.642;23.310;2022-08-21T11:45:22;9.73;;;4.78;;
28910;SDS011;16028;42.642;23.310;2022-08-21T11:50:57;11.88;;;5.30;;
28910;SDS011;16028;42.642;23.310;2022-08-21T11:53:48;11.43;;;5.10;;
28910;SDS011;16028;42.642;23.310;2022-08-21T11:56:51;15.82;;;5.22;;
28910;SDS011;16028;42.642;23.310;2022-08-21T11:59:57;9.70;;;5.53;;
28910;SDS011;16028;42.642;23.310;2022-08-21T12:02:28;8.82;;;5.13;;
28910;SDS011;16028;42.642;23.310;2022-08-21T12:05:02;7.85;;;5.03;;
28910;SDS011;16028;42.642;23.310;2022-08-21T12:07:58;17.80;;;12.70;;
28910;SDS011;16028;42.642;23.310;2022-08-21T12:10:33;14.65;;;8.60;;
28910;SDS011;16028;42.642;23.310;2022-08-21T12:13:10;11.18;;;7.60;;
28910;SDS011;16028;42.642;23.310;2022-08-21T12:16:04;9.95;;;5.53;;
28910;SDS011;16028;42.642;23.310;2022-08-21T12:18:42;14.05;;;6.20;;
28910;SDS011;16028;42.642;23.310;2022-08-21T12:21:17;10.73;;;5.75;;
28910;SDS011;16028;42.642;23.310;2022-08-21T12:24:01;8.60;;;5.05;;
28910;SDS011;16028;42.642;23.310;2022-08-21T12:26:33;16.20;;;8.90;;
28910;SDS011;16028;42.642;23.310;2022-08-21T12:29:04;10.55;;;5.00;;
28910;SDS011;16028;42.642;23.310;2022-08-21T12:31:46;7.82;;;5.18;;
28910;SDS011;16028;42.642;23.310;2022-08-21T12:34:18;11.45;;;5.13;;
28910;SDS011;16028;42.642;23.310;2022-08-21T12:36:58;10.32;;;4.93;;
28910;SDS011;16028;42.642;23.310;2022-08-21T12:39:33;7.70;;;4.55;;
28910;SDS011;16028;42.642;23.310;2022-08-21T12:42:05;7.03;;;4.53;;
28910;SDS011;16028;42.642;23.310;2022-08-21T12:44:42;9.35;;;5.20;;
28910;SDS011;16028;42.642;23.310;2022-08-21T12:47:17;8.63;;;5.20;;
28910;SDS011;16028;42.642;23.310;2022-08-21T12:49:56;9.80;;;5.60;;
28910;SDS011;16028;42.642;23.310;2022-08-21T12:54:57;9.73;;;5.05;;
28910;SDS011;16028;42.642;23.310;2022-08-21T12:57:28;9.45;;;4.88;;
28910;SDS011;16028;42.642;23.310;2022-08-21T12:59:56;11.80;;;5.45;;
28910;SDS011;16028;42.642;23.310;2022-08-21T13:02:26;9.88;;;4.93;;
28910;SDS011;16028;42.642;23.310;2022-08-21T13:04:56;10.85;;;5.63;;
28910;SDS011;16028;42.642;23.310;2022-08-21T13:07:25;14.85;;;5.93;;
28910;SDS011;16028;42.642;23.310;2022-08-21T13:09:58;10.05;;;5.22;;
28910;SDS011;16028;42.642;23.310;2022-08-21T13:14:57;9.75;;;5.28;;
28910;SDS011;16028;42.642;23.310;2022-08-21T13:17:34;7.53;;;5.25;;
28910;SDS011;16028;42.642;23.310;2022-08-21T13:20:04;9.60;;;5.30;;
28910;SDS011;16028;42.642;23.310;2022-08-21T13:22:39;10.57;;;5.53;;
28910;SDS011;16028;42.642;23.310;2022-08-21T13:25:13;9.32;;;5.57;;
28910;SDS011;16028;42.642;23.310;2022-08-21T13:27:42;8.25;;;5.13;;
28910;SDS011;16028;42.642;23.310;2022-08-21T13:30:13;10.23;;;5.45;;
28910;SDS011;16028;42.642;23.310;2022-08-21T13:32:45;8.85;;;4.75;;
28910;SDS011;16028;42.642;23.310;2022-08-21T13:35:18;9.07;;;5.18;;
28910;SDS011;16028;42.642;23.310;2022-08-21T13:37:47;7.78;;;5.45;;
28910;SDS011;16028;42.642;23.310;2022-08-21T13:40:19;11.82;;;4.43;;
28910;SDS011;16028;42.642;23.310;2022-08-21T13:45:21;8.35;;;5.50;;
28910;SDS011;16028;42.642;23.310;2022-08-21T13:47:51;9.90;;;5.50;;
28910;SDS011;16028;42.642;23.310;2022-08-21T13:50:20;11.60;;;5.25;;
28910;SDS011;16028;42.642;23.310;2022-08-21T13:52:54;10.35;;;5.88;;
28910;SDS011;16028;42.642;23.310;2022-08-21T13:55:39;9.27;;;5.18;;
28910;SDS011;16028;42.642;23.310;2022-08-21T13:58:07;8.32;;;5.28;;
28910;SDS011;16028;42.642;23.310;2022-08-21T14:00:43;8.73;;;4.93;;
28910;SDS011;16028;42.642;23.310;2022-08-21T14:03:11;10.82;;;5.75;;
28910;SDS011;16028;42.642;23.310;2022-08-21T14:05:52;9.98;;;5.78;;
28910;SDS011;16028;42.642;23.310;2022-08-21T14:08:21;10.85;;;5.43;;
28910;SDS011;16028;42.642;23.310;2022-08-21T14:16:12;9.30;;;5.70;;
28910;SDS011;16028;42.642;23.310;2022-08-21T14:18:49;11.40;;;6.05;;
28910;SDS011;16028;42.642;23.310;2022-08-21T14:21:28;9.60;;;6.38;;
28910;SDS011;16028;42.642;23.310;2022-08-21T14:24:08;14.43;;;6.80;;
28910;SDS011;16028;42.642;23.310;2022-08-21T14:26:42;8.55;;;5.97;;
28910;SDS011;16028;42.642;23.310;2022-08-21T14:29:13;12.20;;;6.57;;
28910;SDS011;16028;42.642;23.310;2022-08-21T14:31:41;12.20;;;8.20;;
28910;SDS011;16028;42.642;23.310;2022-08-21T14:34:10;8.75;;;6.20;;
28910;SDS011;16028;42.642;23.310;2022-08-21T14:36:40;12.68;;;6.65;;
28910;SDS011;16028;42.642;23.310;2022-08-21T14:39:07;10.27;;;6.75;;
28910;SDS011;16028;42.642;23.310;2022-08-21T14:41:34;16.02;;;7.70;;
28910;SDS011;16028;42.642;23.310;2022-08-21T14:44:05;12.70;;;7.80;;
28910;SDS011;16028;42.642;23.310;2022-08-21T14:46:34;17.58;;;7.38;;
28910;SDS011;16028;42.642;23.310;2022-08-21T14:49:02;10.77;;;7.10;;
28910;SDS011;16028;42.642;23.310;2022-08-21T14:51:32;9.45;;;6.90;;
28910;SDS011;16028;42.642;23.310;2022-08-21T14:53:59;13.73;;;6.47;;
28910;SDS011;16028;42.642;23.310;2022-08-21T14:56:26;9.98;;;6.28;;
28910;SDS011;16028;42.642;23.310;2022-08-21T14:58:53;10.07;;;6.38;;
28910;SDS011;16028;42.642;23.310;2022-08-21T15:01:26;13.20;;;6.95;;
28910;SDS011;16028;42.642;23.310;2022-08-21T15:03:54;11.75;;;6.68;;
28910;SDS011;16028;42.642;23.310;2022-08-21T15:06:21;10.07;;;6.43;;
28910;SDS011;16028;42.642;23.310;2022-08-21T15:08:50;8.85;;;6.30;;
28910;SDS011;16028;42.642;23.310;2022-08-21T15:11:18;11.93;;;6.70;;
28910;SDS011;16028;42.642;23.310;2022-08-21T15:13:48;11.68;;;6.28;;
28910;SDS011;16028;42.642;23.310;2022-08-21T15:16:34;11.48;;;6.15;;
28910;SDS011;16028;42.642;23.310;2022-08-21T15:19:10;9.65;;;6.50;;
28910;SDS011;16028;42.642;23.310;2022-08-21T15:21:38;8.52;;;6.65;;
28910;SDS011;16028;42.642;23.310;2022-08-21T15:24:07;13.82;;;6.15;;
28910;SDS011;16028;42.642;23.310;2022-08-21T15:29:40;12.60;;;6.43;;
28910;SDS011;16028;42.642;23.310;2022-08-21T15:32:21;10.85;;;6.47;;